Time;durP1;ratioP1;P1;durP2;ratioP2;P2;SDS_P1;SDS_P2;PMS_P1;PMS_P2;Temp;Humidity;BMP_temperature;BMP_pressure;BME280_temperature;BME280_humidity;BME280_pressure;Samples;Min_cycle;Max_cycle;Signal;HPM_P1;HPM_P2
2023/03/30 00:01:29;;;;;;;5.88;5.18;;;;;;;13.36;69.29;100503.16;5150918;27;20091;-57
2023/03/30 00:03:57;;;;;;;7.28;5.75;;;;;;;13.35;69.39;100501.44;5152853;27;20045;-57
2023/03/30 00:06:23;;;;;;;6.28;5.68;;;;;;;13.20;70.93;100498.13;5152448;27;20018;-56
2023/03/30 00:08:56;;;;;;;7.97;5.50;;;;;;;13.19;71.76;100493.78;5132442;28;20035;-56
2023/03/30 00:11:22;;;;;;;8.48;5.22;;;;;;;13.27;69.45;100488.72;5133480;27;20121;-56
2023/03/30 00:13:49;;;;;;;7.68;5.85;;;;;;;13.20;69.76;100474.09;5132454;28;20061;-57
2023/03/30 00:16:15;;;;;;;5.95;5.38;;;;;;;13.14;70.76;100480.78;5131980;27;20474;-56
2023/03/30 00:18:41;;;;;;;11.75;5.68;;;;;;;13.14;69.79;100480.78;5132486;28;20023;-56
2023/03/30 00:21:08;;;;;;;8.57;5.20;;;;;;;13.10;70.53;100482.00;5132375;28;20083;-56
2023/03/30 00:23:34;;;;;;;7.45;4.57;;;;;;;13.14;69.68;100478.09;5114980;28;20046;-57
2023/03/30 00:26:00;;;;;;;7.82;5.28;;;;;;;13.07;71.48;100463.56;5133298;27;20027;-56
2023/03/30 00:28:25;;;;;;;7.60;5.35;;;;;;;13.08;69.55;100457.22;5132222;28;20489;-57
2023/03/30 00:30:52;;;;;;;8.50;5.28;;;;;;;13.13;69.44;100480.91;5113380;27;20493;-56
2023/03/30 00:33:19;;;;;;;8.60;6.30;;;;;;;13.10;69.56;100475.81;5113655;28;20047;-57
2023/03/30 00:35:52;;;;;;;6.85;4.80;;;;;;;13.07;69.47;100458.22;5133808;27;20039;-56
2023/03/30 00:38:18;;;;;;;7.22;5.35;;;;;;;13.12;69.10;100458.72;5154624;27;20046;-57
2023/03/30 00:40:53;;;;;;;7.45;5.22;;;;;;;13.11;69.29;100453.47;5156676;27;20549;-56
2023/03/30 00:43:19;;;;;;;7.82;5.57;;;;;;;13.02;69.97;100444.38;5156723;27;20026;-56
2023/03/30 00:45:45;;;;;;;5.57;4.80;;;;;;;13.09;68.97;100453.63;5156117;27;20033;-56
2023/03/30 00:48:27;;;;;;;10.88;5.60;;;;;;;13.05;69.29;100438.78;5142193;27;20028;-57
2023/03/30 00:50:58;;;;;;;11.02;5.93;;;;;;;13.04;69.21;100426.44;5135795;27;20034;-57
2023/03/30 00:53:33;;;;;;;9.70;5.70;;;;;;;13.03;69.71;100437.22;5135825;27;20023;-56
2023/03/30 00:56:01;;;;;;;12.38;5.60;;;;;;;13.06;69.34;100424.50;5135667;27;20027;-56
2023/03/30 00:58:30;;;;;;;7.43;5.78;;;;;;;13.06;69.48;100424.50;5129733;27;20030;-56
2023/03/30 01:00:58;;;;;;;;;;;;;;;13.09;70.03;100424.25;5132500;27;20027;-56
2023/03/30 01:03:31;;;;;;;10.10;5.80;;;;;;;12.98;70.00;100416.25;5135728;27;20289;-57
2023/03/30 01:05:58;;;;;;;8.77;5.22;;;;;;;13.00;70.01;100416.97;5100618;27;20027;-56
2023/03/30 01:08:31;;;;;;;7.63;5.72;;;;;;;12.98;70.06;100412.72;5136766;27;20031;-56
2023/03/30 01:11:00;;;;;;;10.77;5.80;;;;;;;13.00;70.18;100408.97;5135253;27;20076;-56
2023/03/30 01:13:31;;;;;;;6.55;5.63;;;;;;;12.91;70.88;100409.69;5135520;27;20031;-56
2023/03/30 01:16:17;;;;;;;8.93;5.68;;;;;;;12.93;70.46;100413.09;5135444;27;20015;-56
2023/03/30 01:18:53;;;;;;;7.95;5.55;;;;;;;12.81;71.77;100414.91;5114967;28;20447;-57
2023/03/30 01:21:47;;;;;;;8.48;5.85;;;;;;;12.83;71.43;100420.97;5130578;27;20482;-56
2023/03/30 01:24:30;;;;;;;8.38;5.13;;;;;;;12.58;72.73;100416.72;5115084;28;20039;-56
2023/03/30 01:27:01;;;;;;;10.02;5.68;;;;;;;12.60;73.18;100422.78;5122872;27;20030;-56
2023/03/30 01:29:41;;;;;;;9.65;5.75;;;;;;;12.57;73.25;100414.19;5135088;27;20470;-56
2023/03/30 01:32:18;;;;;;;7.30;5.45;;;;;;;12.64;72.58;100421.56;5141013;27;20072;-59
2023/03/30 01:35:09;;;;;;;8.20;5.60;;;;;;;12.72;72.27;100419.16;5114302;28;20020;-56
2023/03/30 01:37:52;;;;;;;7.18;5.10;;;;;;;12.87;71.72;100418.91;5114374;28;20835;-56
2023/03/30 01:40:32;;;;;;;5.85;4.80;;;;;;;12.96;71.37;100415.50;5114263;28;20064;-56
2023/03/30 01:43:07;;;;;;;8.80;4.63;;;;;;;12.99;71.53;100406.41;5101507;27;20342;-56
2023/03/30 01:45:46;;;;;;;5.80;5.13;;;;;;;13.05;70.86;100395.22;5154871;27;20044;-57
2023/03/30 01:48:32;;;;;;;;;;;;;;;13.18;70.27;100406.63;5155474;27;20019;-56
2023/03/30 01:51:41;;;;;;;8.23;5.28;;;;;;;13.14;70.57;100391.81;5155072;27;19982;-56
2023/03/30 01:54:11;;;;;;;7.85;5.10;;;;;;;13.05;70.78;100388.06;5144637;27;20121;-57
2023/03/30 01:56:49;;;;;;;5.80;5.13;;;;;;;13.13;70.26;100411.50;5116437;27;20102;-57
2023/03/30 01:59:39;;;;;;;7.72;5.07;;;;;;;13.08;70.45;100411.84;5134875;27;20458;-56
2023/03/30 02:02:08;;;;;;;6.95;5.22;;;;;;;13.09;70.48;100418.06;5133990;27;20095;-56
2023/03/30 02:04:37;;;;;;;9.30;5.13;;;;;;;13.05;70.77;100416.59;5117062;27;20110;-57
2023/03/30 02:07:07;;;;;;;;;;;;;;;13.09;71.08;100420.72;5134780;27;20084;-57
2023/03/30 02:09:37;;;;;;;7.28;5.65;;;;;;;12.98;70.78;100421.59;5143702;27;19915;-56
2023/03/30 02:12:03;;;;;;;9.40;5.28;;;;;;;13.00;70.88;100419.66;5134204;27;20552;-56
2023/03/30 02:14:32;;;;;;;9.30;5.13;;;;;;;13.08;70.41;100416.34;5134018;27;20023;-56
2023/03/30 02:17:05;;;;;;;6.63;5.72;;;;;;;13.04;70.80;100418.41;5133729;27;20464;-56
2023/03/30 02:19:30;;;;;;;9.10;5.07;;;;;;;13.00;71.45;100413.44;5139852;27;20535;-57
2023/03/30 02:21:56;;;;;;;10.18;5.20;;;;;;;12.84;73.00;100400.47;5135313;27;20023;-56
2023/03/30 02:24:27;;;;;;;8.18;5.50;;;;;;;12.83;72.86;100410.31;5154595;27;20102;-56
2023/03/30 02:26:53;;;;;;;8.63;5.00;;;;;;;12.77;73.57;100408.13;5113346;28;20404;-57
2023/03/30 02:29:20;;;;;;;8.00;5.10;;;;;;;12.79;73.19;100403.50;5113253;28;20029;-56
2023/03/30 02:31:48;;;;;;;5.60;4.70;;;;;;;12.84;72.92;100409.31;5112787;28;20028;-56
2023/03/30 02:34:43;;;;;;;7.72;4.25;;;;;;;12.89;72.35;100408.97;5113294;28;20019;-57
2023/03/30 02:37:24;;;;;;;8.15;5.13;;;;;;;12.90;72.26;100405.31;5076283;28;20073;-56
2023/03/30 02:40:11;;;;;;;8.55;5.28;;;;;;;12.99;71.25;100403.75;5113059;28;20023;-57
2023/03/30 02:42:51;;;;;;;7.05;4.45;;;;;;;12.99;71.78;100403.75;5112785;28;20016;-56
2023/03/30 02:45:42;;;;;;;7.32;4.90;;;;;;;13.03;71.32;100405.19;5112403;28;20019;-57
2023/03/30 02:48:26;;;;;;;6.13;5.10;;;;;;;13.07;71.40;100407.50;5080865;28;20130;-56
2023/03/30 02:51:17;;;;;;;10.52;5.80;;;;;;;13.13;70.95;100403.47;5112752;28;20028;-57
2023/03/30 02:53:44;;;;;;;8.02;5.47;;;;;;;13.16;70.69;100397.88;5113281;28;20448;-58
2023/03/30 02:56:22;;;;;;;8.25;5.30;;;;;;;13.14;71.16;100399.81;5117012;27;20496;-56
2023/03/30 02:58:59;;;;;;;6.53;4.85;;;;;;;13.21;70.70;100401.03;5113797;27;20055;-56
2023/03/30 03:01:36;;;;;;;8.70;4.80;;;;;;;13.24;70.68;100397.28;5122045;27;20424;-56
2023/03/30 03:04:04;;;;;;;6.05;4.72;;;;;;;13.32;69.62;100387.66;5135474;27;20534;-57
2023/03/30 03:06:31;;;;;;;9.32;5.63;;;;;;;13.33;69.67;100392.06;5154094;27;20105;-57
2023/03/30 03:08:57;;;;;;;8.18;4.80;;;;;;;13.33;70.07;100384.03;5135425;27;20385;-56
2023/03/30 03:11:25;;;;;;;9.68;5.00;;;;;;;13.30;69.88;100380.78;5140499;27;20018;-56
2023/03/30 03:13:51;;;;;;;6.50;4.82;;;;;;;13.35;69.56;100395.47;5153780;27;20435;-57
2023/03/30 03:16:17;;;;;;;8.40;5.28;;;;;;;13.33;70.00;100392.06;5147523;27;20023;-56
2023/03/30 03:18:43;;;;;;;8.38;5.03;;;;;;;13.33;69.87;100399.22;5132852;27;20035;-56
2023/03/30 03:21:09;;;;;;;8.48;5.00;;;;;;;13.32;69.75;100390.34;5133224;27;20071;-56
2023/03/30 03:23:35;;;;;;;8.95;5.40;;;;;;;13.31;69.03;100375.28;5134304;27;20389;-56
2023/03/30 03:26:02;;;;;;;8.55;5.15;;;;;;;13.34;69.46;100385.72;5114281;27;20019;-57
2023/03/30 03:28:28;;;;;;;8.82;5.05;;;;;;;13.36;69.07;100383.78;5131965;27;20022;-56
2023/03/30 03:30:54;;;;;;;6.15;4.88;;;;;;;13.36;69.00;100391.81;5138423;27;20031;-57
2023/03/30 03:33:20;;;;;;;9.10;4.82;;;;;;;13.31;69.80;100385.97;5132789;27;20034;-56
2023/03/30 03:35:46;;;;;;;10.15;5.07;;;;;;;13.30;69.48;100386.97;5132589;27;20052;-56
2023/03/30 03:38:12;;;;;;;6.90;4.75;;;;;;;13.34;69.11;100382.22;5114591;27;20381;-57
2023/03/30 03:40:38;;;;;;;6.75;4.90;;;;;;;13.33;69.23;100375.19;5140796;27;20022;-56
2023/03/30 03:43:04;;;;;;;9.90;5.05;;;;;;;13.35;68.52;100368.75;5135120;27;20025;-56
2023/03/30 03:45:31;;;;;;;7.47;5.47;;;;;;;13.30;69.36;100373.59;5134415;27;20422;-57
2023/03/30 03:47:57;;;;;;;7.78;5.43;;;;;;;13.34;68.73;100375.03;5142596;27;20050;-56
2023/03/30 03:50:23;;;;;;;8.18;5.32;;;;;;;13.28;68.40;100372.03;5153537;27;20095;-56
2023/03/30 03:52:48;;;;;;;5.07;4.68;;;;;;;13.45;67.34;100370.66;5153391;27;20053;-57
2023/03/30 03:55:17;;;;;;;8.50;5.25;;;;;;;13.39;67.96;100372.84;5153015;27;20473;-56
2023/03/30 03:57:43;;;;;;;7.95;5.03;;;;;;;13.44;67.58;100363.59;5153604;27;20025;-56
2023/03/30 04:00:14;;;;;;;8.30;4.90;;;;;;;13.36;68.07;100367.75;5114043;28;20058;-56
2023/03/30 04:02:43;;;;;;;9.93;4.78;;;;;;;13.42;67.03;100363.75;5132703;28;20027;-56
2023/03/30 04:05:08;;;;;;;7.97;4.43;;;;;;;13.37;68.44;100377.47;5134878;27;20015;-56
2023/03/30 04:07:36;;;;;;;5.57;4.40;;;;;;;13.36;68.03;100366.91;5153342;27;20029;-56
2023/03/30 04:10:04;;;;;;;10.82;4.78;;;;;;;13.31;68.32;100366.44;5148401;27;20077;-57
2023/03/30 04:12:30;;;;;;;7.20;4.88;;;;;;;13.26;68.46;100361.47;5136746;27;20476;-57
2023/03/30 04:14:58;;;;;;;7.47;5.20;;;;;;;13.28;68.18;100359.53;5136330;27;20142;-56
2023/03/30 04:17:24;;;;;;;8.00;5.68;;;;;;;13.24;69.07;100366.06;5137126;27;20114;-56
2023/03/30 04:19:52;;;;;;;10.35;5.22;;;;;;;13.18;69.17;100351.41;5136478;27;20034;-56
2023/03/30 04:22:24;;;;;;;9.52;4.97;;;;;;;13.23;68.34;100353.66;5136517;27;20427;-56
2023/03/30 04:24:50;;;;;;;10.45;5.13;;;;;;;13.18;69.00;100353.22;5117722;27;20031;-57
2023/03/30 04:27:15;;;;;;;6.68;5.30;;;;;;;13.14;69.11;100352.59;5149636;27;20030;-57
2023/03/30 04:29:43;;;;;;;8.75;4.90;;;;;;;13.10;69.07;100345.81;5138514;27;20034;-56
2023/03/30 04:32:11;;;;;;;6.95;5.45;;;;;;;13.09;69.46;100352.16;5138593;27;20026;-56
2023/03/30 04:34:41;;;;;;;7.88;5.20;;;;;;;13.00;70.54;100342.22;5156986;27;20428;-56
2023/03/30 04:37:10;;;;;;;8.68;5.13;;;;;;;13.11;69.31;100338.66;5147925;27;20047;-56
2023/03/30 04:39:36;;;;;;;8.18;4.63;;;;;;;12.99;70.07;100340.50;5135971;27;20019;-56
2023/03/30 04:42:03;;;;;;;6.95;4.97;;;;;;;12.90;70.15;100326.09;5117487;27;20030;-56
2023/03/30 04:44:29;;;;;;;9.05;5.38;;;;;;;12.92;70.50;100334.00;5135934;27;20019;-56
2023/03/30 04:46:55;;;;;;;8.88;5.07;;;;;;;12.90;70.72;100330.59;5147024;27;20082;-57
2023/03/30 04:49:20;;;;;;;10.50;5.82;;;;;;;12.91;70.53;100327.81;5156578;27;20385;-57
2023/03/30 04:51:46;;;;;;;8.73;5.15;;;;;;;12.90;70.62;100330.59;5156442;27;20015;-56
2023/03/30 04:54:14;;;;;;;8.25;4.65;;;;;;;12.86;70.51;100318.47;5138120;27;20377;-57
2023/03/30 04:56:40;;;;;;;6.80;5.47;;;;;;;12.87;70.98;100331.69;5134487;27;20025;-56
2023/03/30 04:59:08;;;;;;;9.70;5.60;;;;;;;12.83;70.84;100335.59;5143070;27;20105;-57
2023/03/30 05:01:33;;;;;;;9.32;5.82;;;;;;;12.82;71.00;100341.03;5136495;27;20042;-57
2023/03/30 05:04:01;;;;;;;8.95;5.07;;;;;;;12.80;71.26;100341.16;5135488;27;20458;-57
2023/03/30 05:06:26;;;;;;;9.15;5.15;;;;;;;12.67;72.61;100329.78;5144922;27;20054;-57
2023/03/30 05:08:52;;;;;;;10.82;5.47;;;;;;;12.68;75.04;100351.00;5155904;27;20468;-56
2023/03/30 05:11:17;;;;;;;7.63;5.82;;;;;;;12.55;78.40;100357.44;5126687;27;20026;-57
2023/03/30 05:13:43;;;;;;;6.30;5.55;;;;;;;12.41;81.97;100366.50;5117188;27;20035;-57
2023/03/30 05:16:08;;;;;;;16.00;6.10;;;;;;;12.30;83.93;100370.03;5135012;27;20027;-57
2023/03/30 05:18:34;;;;;;;8.55;6.03;;;;;;;12.13;86.04;100374.00;5135572;27;20027;-56
2023/03/30 05:20:59;;;;;;;8.45;6.38;;;;;;;11.95;88.34;100373.59;5117675;27;20015;-57
2023/03/30 05:23:27;;;;;;;11.15;6.63;;;;;;;11.89;89.68;100383.88;5133585;27;20113;-57
2023/03/30 05:25:54;;;;;;;13.50;7.32;;;;;;;11.75;91.80;100384.91;5131999;27;20041;-57
2023/03/30 05:28:20;;;;;;;12.05;6.90;;;;;;;11.68;91.90;100379.19;5116914;27;20030;-56
2023/03/30 05:30:45;;;;;;;11.75;7.03;;;;;;;11.62;93.79;100392.09;5116131;27;20071;-56
2023/03/30 05:33:11;;;;;;;13.55;7.00;;;;;;;11.59;94.49;100402.03;5135421;27;20031;-56
2023/03/30 05:35:38;;;;;;;12.05;6.95;;;;;;;11.55;95.57;100403.22;5134829;27;20051;-56
2023/03/30 05:38:04;;;;;;;10.50;6.80;;;;;;;11.48;96.57;100401.97;5135915;27;20031;-56
2023/03/30 05:40:30;;;;;;;11.90;6.15;;;;;;;11.48;97.26;100403.78;5155586;27;20015;-57
2023/03/30 05:42:56;;;;;;;9.27;6.70;;;;;;;11.40;98.86;100401.69;5134988;27;20035;-56
2023/03/30 05:45:21;;;;;;;9.77;7.43;;;;;;;11.37;99.60;100413.41;5115827;27;20015;-57
2023/03/30 05:47:47;;;;;;;9.25;7.28;;;;;;;11.33;100.00;100406.63;5135829;27;20055;-57
2023/03/30 05:50:12;;;;;;;10.77;7.18;;;;;;;11.35;99.75;100393.19;5116041;27;20027;-56
2023/03/30 05:52:38;;;;;;;12.57;7.50;;;;;;;11.32;100.00;100388.97;5116080;27;20027;-56
2023/03/30 05:55:04;;;;;;;12.75;6.88;;;;;;;11.32;100.00;100398.72;5134385;27;20106;-56
2023/03/30 05:57:29;;;;;;;11.23;6.60;;;;;;;11.37;99.39;100401.91;5123131;27;20053;-56
2023/03/30 05:59:55;;;;;;;10.75;7.57;;;;;;;11.31;100.00;100421.00;5155393;27;20029;-56
2023/03/30 06:02:20;;;;;;;19.15;8.05;;;;;;;11.27;100.00;100420.38;5154784;27;20049;-56
2023/03/30 06:04:46;;;;;;;13.30;8.10;;;;;;;11.30;100.00;100420.16;5155195;27;20033;-56
2023/03/30 06:07:11;;;;;;;11.38;7.90;;;;;;;11.25;100.00;100416.97;5153683;27;20023;-56
2023/03/30 06:09:39;;;;;;;14.90;7.72;;;;;;;11.27;100.00;100416.88;5134080;27;20027;-57
2023/03/30 06:12:05;;;;;;;12.73;7.97;;;;;;;11.35;100.00;100422.47;5134301;27;20023;-56
2023/03/30 06:14:30;;;;;;;13.02;7.75;;;;;;;11.22;100.00;100417.19;5115933;27;20477;-57
2023/03/30 06:16:58;;;;;;;15.77;7.65;;;;;;;11.23;100.00;100431.34;5137528;27;20507;-56
2023/03/30 06:19:23;;;;;;;14.15;8.15;;;;;;;11.30;99.49;100437.94;5136488;27;20023;-56
2023/03/30 06:21:52;;;;;;;15.25;8.40;;;;;;;11.34;99.26;100426.94;5135600;27;20454;-56
2023/03/30 06:24:19;;;;;;;16.13;9.10;;;;;;;11.32;100.00;100430.69;5155393;27;20111;-57
2023/03/30 06:26:45;;;;;;;15.02;8.25;;;;;;;11.25;100.00;100430.28;5154533;27;20066;-57
2023/03/30 06:29:10;;;;;;;11.18;8.13;;;;;;;11.20;100.00;100452.88;5153207;27;20027;-57
2023/03/30 06:31:36;;;;;;;12.75;7.65;;;;;;;11.17;100.00;100442.44;5135714;27;20629;-57
2023/03/30 06:34:01;;;;;;;13.43;8.18;;;;;;;11.31;99.29;100443.16;5154191;27;20484;-57
2023/03/30 06:36:26;;;;;;;12.52;8.35;;;;;;;11.20;100.00;100437.75;5152175;27;20035;-57
2023/03/30 06:38:52;;;;;;;13.88;8.30;;;;;;;11.20;100.00;100445.72;5135672;27;20502;-56
2023/03/30 06:41:17;;;;;;;11.73;8.38;;;;;;;11.24;100.00;100441.06;5154345;27;20019;-56
2023/03/30 06:43:43;;;;;;;12.90;7.72;;;;;;;11.20;100.00;100444.88;5135826;27;20023;-57
2023/03/30 06:46:11;;;;;;;10.15;7.05;;;;;;;11.16;100.00;100438.09;5154182;27;20366;-56
2023/03/30 06:48:39;;;;;;;9.15;7.82;;;;;;;11.23;100.00;100447.31;5137222;27;20025;-57
2023/03/30 06:51:07;;;;;;;10.68;7.30;;;;;;;11.25;100.00;100448.91;5114736;27;20027;-57
2023/03/30 06:53:33;;;;;;;13.48;8.25;;;;;;;11.35;100.00;100439.31;5115050;27;20027;-56
2023/03/30 06:55:58;;;;;;;13.35;7.90;;;;;;;11.35;100.00;100443.75;5133294;27;20030;-56
2023/03/30 06:58:26;;;;;;;13.05;7.10;;;;;;;11.41;100.00;100432.66;5117115;27;20019;-56
2023/03/30 07:00:52;;;;;;;14.60;7.78;;;;;;;11.51;99.64;100441.69;5114520;27;20479;-57
2023/03/30 07:03:18;;;;;;;11.95;7.25;;;;;;;11.62;98.71;100448.03;5114821;27;20111;-56
2023/03/30 07:05:50;;;;;;;14.23;8.10;;;;;;;11.59;100.00;100451.78;5133000;27;20489;-56
2023/03/30 07:08:16;;;;;;;10.02;6.80;;;;;;;11.70;99.71;100450.97;5116070;27;20019;-56
2023/03/30 07:10:42;;;;;;;11.15;7.80;;;;;;;11.76;99.61;100447.84;5133102;27;20019;-56
2023/03/30 07:13:08;;;;;;;12.02;7.60;;;;;;;11.89;99.30;100450.50;5114902;27;20037;-56
2023/03/30 07:15:33;;;;;;;12.57;7.05;;;;;;;11.97;98.40;100462.28;5114323;27;20055;-56
2023/03/30 07:18:02;;;;;;;10.48;7.63;;;;;;;12.11;96.90;100449.72;5146228;27;20454;-57
2023/03/30 07:20:27;;;;;;;8.82;7.55;;;;;;;12.17;96.07;100452.75;5132859;27;20047;-57
2023/03/30 07:22:52;;;;;;;10.63;6.57;;;;;;;12.25;94.14;100439.72;5137745;27;20073;-57
2023/03/30 07:25:18;;;;;;;11.20;7.00;;;;;;;12.37;93.51;100450.41;5143888;27;20438;-57
2023/03/30 07:27:46;;;;;;;13.05;6.60;;;;;;;12.62;95.34;100457.38;5132943;27;20024;-56
2023/03/30 07:30:13;;;;;;;10.90;6.68;;;;;;;12.77;92.82;100447.31;5132619;27;20026;-56
2023/03/30 07:32:38;;;;;;;12.25;6.65;;;;;;;12.72;92.38;100461.84;5133025;27;20405;-56
2023/03/30 07:35:04;;;;;;;16.67;7.18;;;;;;;12.78;90.89;100459.69;5129602;27;20027;-57
2023/03/30 07:37:30;;;;;;;12.77;6.28;;;;;;;12.68;90.32;100465.75;5112450;28;20048;-56
2023/03/30 07:39:58;;;;;;;14.18;6.80;;;;;;;12.66;90.66;100467.66;5094279;28;20030;-57
2023/03/30 07:42:26;;;;;;;14.45;6.50;;;;;;;12.64;89.60;100466.94;5112188;28;20031;-57
2023/03/30 07:44:52;;;;;;;12.57;6.63;;;;;;;12.62;89.91;100473.38;5093209;28;20031;-56
2023/03/30 07:47:17;;;;;;;17.60;6.28;;;;;;;12.63;90.79;100472.41;5094262;28;20023;-57
2023/03/30 07:49:42;;;;;;;14.98;7.05;;;;;;;12.65;90.27;100486.47;5093786;28;20035;-56
2023/03/30 07:52:08;;;;;;;14.05;6.53;;;;;;;12.71;89.86;100483.34;5112091;28;20023;-56
2023/03/30 07:54:33;;;;;;;16.75;6.53;;;;;;;12.79;88.23;100483.56;5127984;28;20102;-56
2023/03/30 07:56:59;;;;;;;19.95;7.18;;;;;;;12.78;89.82;100495.22;5111897;28;20044;-56
2023/03/30 07:59:24;;;;;;;15.38;7.15;;;;;;;12.84;89.72;100484.06;5095326;28;20598;-56
2023/03/30 08:01:53;;;;;;;18.23;7.07;;;;;;;12.86;88.75;100481.28;5111327;28;20385;-57
2023/03/30 08:04:19;;;;;;;18.92;7.50;;;;;;;12.85;88.37;100491.13;5127933;28;20043;-56
2023/03/30 08:06:46;;;;;;;13.10;5.95;;;;;;;12.98;85.11;100506.16;5093640;28;20027;-57
2023/03/30 08:09:12;;;;;;;14.00;6.10;;;;;;;12.88;86.95;100500.66;5123164;28;20039;-57
2023/03/30 08:11:38;;;;;;;18.10;6.22;;;;;;;12.91;84.67;100495.97;5114318;28;20046;-57
2023/03/30 08:14:03;;;;;;;20.63;7.10;;;;;;;12.97;85.19;100507.97;5132555;28;20023;-57
2023/03/30 08:16:29;;;;;;;15.40;6.75;;;;;;;12.91;85.44;100503.97;5131642;28;20023;-56
2023/03/30 08:18:55;;;;;;;13.43;5.95;;;;;;;12.95;81.31;100508.09;5112315;28;20126;-56
2023/03/30 08:21:25;;;;;;;11.93;6.07;;;;;;;13.03;80.86;100506.63;5132109;28;20106;-57
2023/03/30 08:23:59;;;;;;;16.90;7.47;;;;;;;12.85;82.48;100522.25;5132345;28;20069;-57
2023/03/30 08:26:25;;;;;;;16.65;6.88;;;;;;;12.87;82.55;100515.84;5132265;28;20031;-56
2023/03/30 08:28:51;;;;;;;16.98;6.50;;;;;;;12.95;82.41;100518.78;5131579;28;20387;-57
2023/03/30 08:31:17;;;;;;;20.75;7.38;;;;;;;12.82;81.33;100518.00;5130028;28;20027;-56
2023/03/30 08:33:43;;;;;;;26.55;8.00;;;;;;;12.81;80.65;100513.66;5111929;28;20427;-56
2023/03/30 08:36:09;;;;;;;21.63;7.38;;;;;;;12.82;80.69;100498.50;5111718;28;20044;-57
2023/03/30 08:38:35;;;;;;;16.85;8.25;;;;;;;13.00;79.41;100504.19;5111658;28;20020;-56
2023/03/30 08:41:01;;;;;;;20.35;6.82;;;;;;;13.17;78.18;100517.06;5111452;28;20012;-57
2023/03/30 08:43:49;;;;;;;16.77;7.35;;;;;;;13.50;80.27;100518.03;5112788;28;20030;-56
2023/03/30 08:46:17;;;;;;;21.95;8.10;;;;;;;13.62;75.50;100522.41;5108424;28;20035;-57
2023/03/30 08:48:45;;;;;;;21.23;6.78;;;;;;;13.84;74.35;100508.13;5109903;28;20030;-56
2023/03/30 08:51:19;;;;;;;20.15;7.43;;;;;;;13.93;73.80;100530.59;5127281;28;20489;-56
2023/03/30 08:53:46;;;;;;;17.02;7.43;;;;;;;14.15;74.03;100527.84;5106116;28;20093;-56
2023/03/30 08:56:27;;;;;;;23.05;7.18;;;;;;;14.19;74.66;100523.94;5123192;28;20389;-57
2023/03/30 08:59:25;;;;;;;17.40;5.45;;;;;;;14.37;72.04;100531.41;5114978;28;20027;-56
2023/03/30 09:02:12;;;;;;;16.02;7.00;;;;;;;14.30;71.07;100526.56;5096286;28;20569;-57
2023/03/30 09:04:56;;;;;;;16.48;6.80;;;;;;;14.38;70.33;100499.16;5115290;28;20102;-56
2023/03/30 09:07:55;;;;;;;17.33;6.70;;;;;;;14.53;70.58;100519.31;5111318;27;20019;-56
2023/03/30 09:10:23;;;;;;;21.60;6.00;;;;;;;14.48;69.99;100521.50;5133688;27;20039;-57
2023/03/30 09:12:56;;;;;;;15.07;5.85;;;;;;;14.42;69.63;100529.19;5135301;27;20363;-57
2023/03/30 09:15:25;;;;;;;16.35;5.80;;;;;;;14.43;68.26;100545.09;5126573;27;20096;-56
2023/03/30 09:18:16;;;;;;;17.23;7.07;;;;;;;14.25;68.39;100558.19;5108527;27;20127;-56
2023/03/30 09:20:43;;;;;;;18.35;6.88;;;;;;;13.98;70.04;100537.25;5115316;28;20039;-56
2023/03/30 09:23:16;;;;;;;16.85;6.15;;;;;;;13.90;68.29;100555.75;5114952;28;20016;-57
2023/03/30 09:25:48;;;;;;;18.38;6.75;;;;;;;13.76;69.44;100561.38;5114861;28;20027;-57
2023/03/30 09:28:13;;;;;;;21.80;7.68;;;;;;;13.75;69.80;100563.19;5096379;28;20474;-56
2023/03/30 09:30:47;;;;;;;16.95;7.00;;;;;;;13.89;69.13;100566.59;5131197;27;20077;-57
2023/03/30 09:33:45;;;;;;;20.20;8.20;;;;;;;14.07;67.96;100571.25;5151393;27;20427;-56
2023/03/30 09:36:14;;;;;;;19.40;7.30;;;;;;;14.40;68.69;100565.91;5134998;27;20043;-56
2023/03/30 09:38:43;;;;;;;20.80;7.05;;;;;;;14.77;66.81;100555.66;5135182;27;20497;-56
2023/03/30 09:41:27;;;;;;;22.80;8.40;;;;;;;14.96;67.34;100560.28;5133047;27;20018;-57
2023/03/30 09:43:55;;;;;;;17.08;6.88;;;;;;;14.93;65.11;100564.06;5134506;27;20367;-56
2023/03/30 09:46:20;;;;;;;23.10;7.30;;;;;;;14.86;66.04;100556.72;5134215;27;20027;-56
2023/03/30 09:48:48;;;;;;;23.85;7.10;;;;;;;14.91;65.11;100567.84;5134666;27;20026;-56
2023/03/30 09:51:17;;;;;;;19.80;7.05;;;;;;;15.14;65.02;100563.19;5114542;27;20027;-56
2023/03/30 09:53:44;;;;;;;23.60;7.47;;;;;;;15.18;64.22;100565.50;5134993;27;20054;-56
2023/03/30 09:56:16;;;;;;;20.23;7.57;;;;;;;15.17;65.24;100574.50;5134793;27;20521;-57
2023/03/30 09:58:42;;;;;;;25.98;7.72;;;;;;;15.13;64.18;100583.78;5134407;27;20112;-56
2023/03/30 10:01:20;;;;;;;23.15;7.45;;;;;;;15.11;64.75;100576.84;5132413;27;20061;-56
2023/03/30 10:04:08;;;;;;;19.02;7.45;;;;;;;15.10;64.79;100593.94;5106173;27;20033;-57
2023/03/30 10:06:53;;;;;;;18.83;6.95;;;;;;;14.97;65.04;100578.91;5116267;27;20415;-56
2023/03/30 10:09:22;;;;;;;23.20;7.35;;;;;;;14.67;63.67;100592.22;5133145;27;20035;-56
2023/03/30 10:11:50;;;;;;;23.83;8.02;;;;;;;14.69;65.21;100598.31;5133904;27;20022;-57
2023/03/30 10:14:31;;;;;;;17.67;7.38;;;;;;;14.63;65.17;100598.81;5116047;27;20034;-57
2023/03/30 10:16:58;;;;;;;23.60;7.90;;;;;;;14.45;66.40;100610.06;5153104;27;20034;-56
2023/03/30 10:19:24;;;;;;;23.33;8.68;;;;;;;14.66;65.11;100583.34;5154941;27;20026;-56
2023/03/30 10:21:55;;;;;;;17.95;7.28;;;;;;;14.81;66.63;100588.38;5154671;27;20027;-56
2023/03/30 10:24:22;;;;;;;23.17;7.85;;;;;;;14.90;65.41;100595.63;5136442;27;20029;-57
2023/03/30 10:26:55;;;;;;;22.63;6.30;;;;;;;15.26;65.15;100594.28;5138891;27;20031;-57
2023/03/30 10:29:22;;;;;;;18.92;7.15;;;;;;;15.30;64.59;100594.88;5133949;27;20023;-57
2023/03/30 10:32:10;;;;;;;20.05;5.95;;;;;;;15.38;63.98;100581.63;5133511;27;20033;-57
2023/03/30 10:34:39;;;;;;;14.77;5.95;;;;;;;15.20;61.14;100592.13;5135018;27;20011;-56
2023/03/30 10:37:10;;;;;;;19.63;6.53;;;;;;;15.08;61.66;100601.22;5112757;28;20105;-56
2023/03/30 10:39:39;;;;;;;20.98;7.35;;;;;;;15.34;62.69;100605.19;5113191;28;20482;-57
2023/03/30 10:42:08;;;;;;;20.27;6.20;;;;;;;15.67;62.02;100598.72;5112764;28;20020;-57
2023/03/30 10:44:44;;;;;;;18.80;6.72;;;;;;;15.87;60.94;100605.00;5113004;28;20467;-57
2023/03/30 10:47:27;;;;;;;20.55;6.88;;;;;;;15.64;60.04;100598.97;5130625;27;20051;-57
2023/03/30 10:50:10;;;;;;;20.17;6.85;;;;;;;15.44;61.31;100608.78;5133299;27;20038;-57
2023/03/30 10:52:36;;;;;;;22.67;6.88;;;;;;;15.76;61.33;100618.50;5133552;27;20034;-56
2023/03/30 10:55:12;;;;;;;19.95;5.70;;;;;;;16.03;59.67;100604.50;5139829;27;20031;-57
2023/03/30 10:58:11;;;;;;;21.80;5.72;;;;;;;16.03;60.64;100601.81;5154403;27;20515;-57
2023/03/30 11:00:56;;;;;;;19.05;5.88;;;;;;;15.92;58.45;100596.56;5147431;27;20110;-57
2023/03/30 11:03:28;;;;;;;16.10;6.30;;;;;;;15.87;60.13;100594.25;5135438;27;20025;-57
2023/03/30 11:06:08;;;;;;;14.82;5.88;;;;;;;15.60;59.72;100602.06;5147821;27;20010;-56
2023/03/30 11:08:40;;;;;;;16.73;5.85;;;;;;;15.47;60.23;100610.34;5154060;27;20162;-57
2023/03/30 11:11:12;;;;;;;18.75;6.20;;;;;;;15.63;60.80;100601.78;5139271;27;20027;-57
2023/03/30 11:13:46;;;;;;;20.42;5.78;;;;;;;15.98;59.85;100604.03;5133355;27;20427;-57
2023/03/30 11:16:27;;;;;;;15.13;5.70;;;;;;;15.92;60.25;100601.06;5115504;27;20105;-56
2023/03/30 11:19:05;;;;;;;18.10;5.68;;;;;;;15.73;59.02;100591.13;5132972;27;20031;-57
2023/03/30 11:22:06;;;;;;;18.58;6.32;;;;;;;15.55;59.46;100607.81;5132496;27;20034;-57
2023/03/30 11:24:34;;;;;;;19.42;6.57;;;;;;;15.34;60.48;100588.25;5110336;27;20059;-56
2023/03/30 11:27:14;;;;;;;20.10;6.40;;;;;;;15.32;60.40;100599.09;5115439;27;20023;-56
2023/03/30 11:29:58;;;;;;;17.45;6.03;;;;;;;15.35;61.22;100606.03;5114574;27;20023;-57
2023/03/30 11:32:48;;;;;;;20.52;7.15;;;;;;;15.49;62.20;100599.47;5114956;27;20023;-56
2023/03/30 11:35:19;;;;;;;;;;;;;;;15.53;61.17;100603.56;5153652;27;20025;-56
2023/03/30 11:38:12;;;;;;;18.77;6.25;;;;;;;15.31;61.94;100583.19;5133015;27;20002;-57